createdAt,value
2022-11-07T00:00:40.519Z,44.41
2022-11-07T00:03:06.897Z,44.76
2022-11-07T00:05:33.279Z,44.53
2022-11-07T00:07:59.607Z,44.42
2022-11-07T00:10:25.948Z,44.30
2022-11-07T00:12:52.283Z,44.54
2022-11-07T00:15:18.623Z,44.14
2022-11-07T00:17:44.961Z,44.11
2022-11-07T00:20:11.295Z,44.67
2022-11-07T00:22:37.626Z,44.15
2022-11-07T00:25:03.958Z,44.60
2022-11-07T00:27:30.344Z,44.54
2022-11-07T00:29:56.715Z,44.48
2022-11-07T00:32:23.056Z,44.26
2022-11-07T00:34:49.395Z,44.37
2022-11-07T00:37:15.731Z,44.39
2022-11-07T00:39:42.066Z,44.48
2022-11-07T00:42:08.398Z,43.83
2022-11-07T00:44:34.724Z,44.37
2022-11-07T00:47:01.076Z,43.95
2022-11-07T00:49:27.400Z,44.16
2022-11-07T00:51:53.726Z,44.17
2022-11-07T00:54:20.068Z,44.22
2022-11-07T00:56:46.400Z,43.97
2022-11-07T00:59:12.735Z,43.98
2022-11-07T01:01:39.180Z,44.06
2022-11-07T01:04:05.619Z,44.10
2022-11-07T01:06:31.947Z,44.49
2022-11-07T01:08:58.278Z,44.25
2022-11-07T01:11:24.624Z,44.17
2022-11-07T01:13:50.965Z,44.15
2022-11-07T01:16:17.296Z,43.94
2022-11-07T01:18:43.623Z,43.85
2022-11-07T01:21:16.145Z,44.43
2022-11-07T01:23:42.906Z,44.20
2022-11-07T01:26:09.226Z,44.31
2022-11-07T01:28:35.557Z,43.82
2022-11-07T01:31:01.888Z,44.08
2022-11-07T01:33:28.220Z,44.27
2022-11-07T01:35:54.551Z,44.15
2022-11-07T01:38:20.889Z,44.29
2022-11-07T01:40:47.228Z,44.13
2022-11-07T01:43:13.717Z,43.84
2022-11-07T01:45:40.150Z,44.07
2022-11-07T01:48:06.483Z,44.12
2022-11-07T01:50:32.817Z,43.82
2022-11-07T01:52:59.167Z,43.99
2022-11-07T01:55:25.493Z,44.10
2022-11-07T01:57:51.817Z,44.08
2022-11-07T02:00:18.147Z,43.93
2022-11-07T02:02:44.631Z,44.17
2022-11-07T02:05:11.050Z,44.06
2022-11-07T02:07:37.392Z,44.50
2022-11-07T02:10:03.767Z,44.23
2022-11-07T02:12:30.095Z,44.08
2022-11-07T02:14:56.435Z,43.98
2022-11-07T02:17:22.771Z,44.24
2022-11-07T02:19:49.107Z,44.20
2022-11-07T02:22:15.451Z,44.40
2022-11-07T02:24:41.769Z,44.20
2022-11-07T02:27:08.093Z,43.80
2022-11-07T02:29:34.414Z,43.91
2022-11-07T02:32:00.743Z,43.71
2022-11-07T02:34:27.096Z,44.20
2022-11-07T02:36:53.424Z,43.90
2022-11-07T02:39:19.743Z,44.05
2022-11-07T02:41:46.089Z,43.88
2022-11-07T02:44:12.419Z,44.02
2022-11-07T02:46:38.748Z,43.93
2022-11-07T02:49:05.074Z,43.99
2022-11-07T02:51:31.398Z,43.75
2022-11-07T02:53:57.723Z,43.86
2022-11-07T02:56:25.104Z,43.77
2022-11-07T02:58:51.434Z,43.81
2022-11-07T03:01:17.849Z,43.86
2022-11-07T03:03:44.215Z,43.80
2022-11-07T03:06:10.543Z,43.85
2022-11-07T03:08:36.874Z,43.71
2022-11-07T03:11:03.215Z,43.83
2022-11-07T03:13:29.545Z,43.99
2022-11-07T03:15:55.879Z,43.95
2022-11-07T03:18:22.206Z,43.75
2022-11-07T03:20:48.536Z,43.99
2022-11-07T03:23:15.132Z,43.62
2022-11-07T03:25:41.667Z,43.83
2022-11-07T03:28:07.994Z,43.95
2022-11-07T03:30:34.320Z,43.70
2022-11-07T03:33:00.646Z,43.83
2022-11-07T03:35:26.966Z,43.85
2022-11-07T03:37:53.298Z,43.62
2022-11-07T03:40:19.627Z,43.93
2022-11-07T03:42:45.960Z,43.74
2022-11-07T03:45:12.303Z,43.81
2022-11-07T03:47:38.621Z,43.84
2022-11-07T03:50:04.947Z,44.02
2022-11-07T03:52:31.283Z,44.08
2022-11-07T03:54:57.610Z,43.62
2022-11-07T03:57:23.943Z,43.91
2022-11-07T03:59:50.272Z,44.08
2022-11-07T04:02:16.668Z,43.95
2022-11-07T04:04:43.080Z,43.85
2022-11-07T04:07:09.393Z,43.86
2022-11-07T04:09:35.723Z,43.79
2022-11-07T04:12:02.078Z,43.98
2022-11-07T04:14:28.397Z,43.88
2022-11-07T04:16:54.721Z,43.83
2022-11-07T04:19:21.056Z,43.92
2022-11-07T04:21:47.394Z,43.90
2022-11-07T04:24:13.719Z,43.93
2022-11-07T04:26:40.053Z,43.74
2022-11-07T04:29:06.379Z,43.89
2022-11-07T04:31:32.702Z,44.03
2022-11-07T04:33:59.031Z,44.04
2022-11-07T04:36:25.375Z,44.06
2022-11-07T04:38:51.708Z,44.26
2022-11-07T04:41:18.021Z,44.67
2022-11-07T04:43:44.351Z,44.27
2022-11-07T04:46:10.687Z,44.05
2022-11-07T04:48:37.006Z,44.24
2022-11-07T04:51:03.347Z,43.80
2022-11-07T04:53:29.670Z,43.89
2022-11-07T04:55:55.996Z,43.65
2022-11-07T04:58:22.332Z,43.83
2022-11-07T05:00:48.662Z,44.09
2022-11-07T05:03:15.397Z,44.87
2022-11-07T05:05:41.934Z,44.09
2022-11-07T05:08:08.264Z,43.36
2022-11-07T05:10:34.590Z,42.36
2022-11-07T05:13:00.932Z,42.23
2022-11-07T05:15:27.263Z,43.22
2022-11-07T05:17:53.591Z,43.39
2022-11-07T05:20:19.914Z,43.42
2022-11-07T05:22:46.234Z,43.20
2022-11-07T05:25:12.567Z,43.54
2022-11-07T05:27:38.903Z,43.35
2022-11-07T05:30:05.266Z,43.03
2022-11-07T05:32:31.598Z,42.96
2022-11-07T05:34:57.914Z,42.88
2022-11-07T05:37:24.264Z,42.60
2022-11-07T05:39:54.860Z,43.38
2022-11-07T05:42:21.534Z,43.22
2022-11-07T05:44:47.876Z,43.19
2022-11-07T05:47:14.219Z,43.69
2022-11-07T05:49:40.547Z,43.29
2022-11-07T05:52:06.904Z,43.19
2022-11-07T05:54:33.269Z,42.86
2022-11-07T05:56:59.614Z,42.61
2022-11-07T05:59:25.944Z,42.77
2022-11-07T06:01:52.394Z,42.28
2022-11-07T06:04:18.782Z,42.54
2022-11-07T06:06:45.140Z,42.37
2022-11-07T06:09:11.489Z,41.26
2022-11-07T06:11:37.843Z,42.26
2022-11-07T06:14:04.193Z,42.99
2022-11-07T06:16:30.522Z,42.94
2022-11-07T06:18:56.855Z,43.28
2022-11-07T06:21:23.269Z,43.24
2022-11-07T06:23:49.608Z,47.27
2022-11-07T06:26:15.931Z,46.40
2022-11-07T06:28:42.262Z,45.75
2022-11-07T06:31:08.576Z,45.55
2022-11-07T06:33:34.902Z,45.60
2022-11-07T06:36:01.222Z,45.72
2022-11-07T06:38:27.591Z,45.89
2022-11-07T06:40:53.922Z,46.54
2022-11-07T06:43:20.691Z,46.46
2022-11-07T06:45:47.267Z,46.71
2022-11-07T06:48:13.603Z,46.54
2022-11-07T06:50:39.936Z,46.54
2022-11-07T06:53:06.296Z,46.69
2022-11-07T06:55:32.634Z,46.72
2022-11-07T06:57:59.256Z,47.18
2022-11-07T07:00:25.588Z,47.15
2022-11-07T07:02:58.436Z,47.36
2022-11-07T07:05:25.476Z,47.31
2022-11-07T07:07:51.814Z,47.50
2022-11-07T07:10:18.373Z,47.76
2022-11-07T07:12:44.780Z,47.79
2022-11-07T07:15:11.115Z,48.00
2022-11-07T07:17:37.439Z,47.84
2022-11-07T07:20:03.765Z,48.07
2022-11-07T07:22:30.423Z,48.04
2022-11-07T07:24:56.754Z,48.07
2022-11-07T07:27:23.183Z,48.23
2022-11-07T07:29:49.518Z,48.09
2022-11-07T07:32:15.848Z,47.98
2022-11-07T07:34:42.177Z,47.98
2022-11-07T07:37:08.502Z,46.70
2022-11-07T07:39:34.819Z,46.26
2022-11-07T07:42:01.145Z,47.72
2022-11-07T07:44:27.463Z,47.83
2022-11-07T07:46:53.791Z,47.89
2022-11-07T07:49:20.127Z,47.80
2022-11-07T07:51:46.479Z,46.43
2022-11-07T07:54:12.797Z,46.09
2022-11-07T07:56:39.130Z,44.94
2022-11-07T07:59:05.469Z,44.28
2022-11-07T08:01:31.962Z,45.21
2022-11-07T08:04:01.799Z,44.80
2022-11-07T08:06:28.984Z,44.77
2022-11-07T08:08:55.305Z,44.11
2022-11-07T08:11:21.627Z,44.47
2022-11-07T08:13:47.962Z,43.57
2022-11-07T08:16:14.296Z,43.40
2022-11-07T08:18:40.638Z,43.62
2022-11-07T08:21:06.966Z,44.23
2022-11-07T08:23:33.293Z,43.74
2022-11-07T08:25:59.640Z,44.48
2022-11-07T08:28:25.981Z,43.64
2022-11-07T08:30:52.302Z,43.48
2022-11-07T08:33:18.904Z,44.90
2022-11-07T08:35:45.472Z,46.08
2022-11-07T08:38:11.798Z,45.71
2022-11-07T08:40:38.139Z,45.71
2022-11-07T08:43:04.481Z,45.61
2022-11-07T08:45:30.802Z,45.42
2022-11-07T08:47:57.119Z,45.27
2022-11-07T08:50:23.478Z,45.07
2022-11-07T08:52:49.816Z,44.96
2022-11-07T08:55:16.143Z,45.38
2022-11-07T08:57:42.471Z,45.65
2022-11-07T09:00:08.807Z,45.72
2022-11-07T09:05:21.472Z,45.73
2022-11-07T09:07:47.796Z,45.78
2022-11-07T09:10:14.130Z,45.74
2022-11-07T09:12:40.467Z,46.10
2022-11-07T09:15:06.809Z,46.25
2022-11-07T09:17:33.137Z,46.03
2022-11-07T09:19:59.459Z,46.15
2022-11-07T09:22:25.789Z,46.27
2022-11-07T09:24:52.119Z,46.26
2022-11-07T09:27:18.457Z,46.13
2022-11-07T09:29:44.790Z,46.53
2022-11-07T09:32:30.829Z,46.38
2022-11-07T09:35:02.096Z,46.66
2022-11-07T09:37:31.283Z,46.42
2022-11-07T09:39:57.609Z,46.87
2022-11-07T09:42:23.932Z,46.51
2022-11-07T09:44:50.263Z,46.64
2022-11-07T09:47:16.580Z,46.53
2022-11-07T09:49:42.912Z,46.85
2022-11-07T09:52:09.241Z,46.77
2022-11-07T09:54:35.663Z,46.84
2022-11-07T09:57:01.983Z,46.59
2022-11-07T09:59:28.315Z,47.06
2022-11-07T10:01:54.678Z,47.01
2022-11-07T10:04:26.130Z,46.87
2022-11-07T10:06:53.079Z,46.97
2022-11-07T10:09:19.420Z,46.99
2022-11-07T10:11:45.751Z,47.26
2022-11-07T10:14:12.119Z,46.94
2022-11-07T10:16:38.448Z,47.00
2022-11-07T10:19:04.772Z,47.00
2022-11-07T10:21:37.668Z,47.00
2022-11-07T10:24:04.953Z,47.04
2022-11-07T10:26:31.289Z,47.18
2022-11-07T10:28:57.619Z,47.17
2022-11-07T10:31:23.967Z,47.17
2022-11-07T10:33:50.313Z,47.01
2022-11-07T10:36:16.640Z,47.49
2022-11-07T10:38:42.964Z,47.12
2022-11-07T10:41:09.285Z,47.11
2022-11-07T10:43:35.599Z,47.40
2022-11-07T10:46:01.924Z,47.38
2022-11-07T10:48:28.262Z,47.32
2022-11-07T10:50:54.597Z,47.49
2022-11-07T10:53:20.936Z,47.04
2022-11-07T10:55:47.270Z,47.06
2022-11-07T10:58:13.915Z,47.22
2022-11-07T11:00:40.442Z,47.58
2022-11-07T11:03:06.810Z,47.39
2022-11-07T11:05:33.132Z,47.52
2022-11-07T11:07:59.470Z,47.48
2022-11-07T11:10:25.791Z,47.68
2022-11-07T11:12:52.129Z,47.49
2022-11-07T11:15:18.540Z,47.76
2022-11-07T11:17:44.853Z,47.73
2022-11-07T11:20:11.173Z,47.60
2022-11-07T11:22:37.509Z,47.56
2022-11-07T11:25:03.822Z,47.48
2022-11-07T11:27:30.139Z,47.45
2022-11-07T11:29:56.462Z,47.74
2022-11-07T11:32:22.791Z,47.55
2022-11-07T11:34:49.121Z,47.48
2022-11-07T11:37:15.451Z,47.50
2022-11-07T11:39:41.779Z,47.45
2022-11-07T11:42:08.112Z,47.52
2022-11-07T11:44:34.441Z,47.57
2022-11-07T11:47:00.777Z,47.50
2022-11-07T11:49:27.115Z,47.39
2022-11-07T11:51:53.453Z,47.26
2022-11-07T11:54:19.787Z,47.69
2022-11-07T11:56:46.125Z,47.51
2022-11-07T11:59:12.452Z,47.45
2022-11-07T12:01:38.788Z,47.43
2022-11-07T12:04:08.028Z,47.39
2022-11-07T12:06:34.694Z,47.48
2022-11-07T12:09:01.018Z,47.30
2022-11-07T12:11:27.342Z,47.46
2022-11-07T12:13:53.675Z,47.53
2022-11-07T12:16:20.016Z,47.39
2022-11-07T12:18:46.346Z,47.71
2022-11-07T12:21:12.664Z,47.54
2022-11-07T12:23:38.996Z,47.33
2022-11-07T12:26:05.327Z,47.67
2022-11-07T12:28:31.673Z,47.82
2022-11-07T12:30:58.001Z,47.56
2022-11-07T12:33:24.336Z,47.30
2022-11-07T12:35:50.667Z,47.49
2022-11-07T12:38:17.008Z,47.60
2022-11-07T12:40:43.335Z,47.69
2022-11-07T12:43:09.663Z,47.63
2022-11-07T12:45:35.983Z,47.43
2022-11-07T12:48:02.318Z,47.51
2022-11-07T12:50:28.643Z,47.79
2022-11-07T12:52:54.963Z,47.52
2022-11-07T12:55:21.291Z,47.65
2022-11-07T12:57:47.622Z,47.65
2022-11-07T13:00:13.952Z,47.50
2022-11-07T13:02:40.314Z,47.67
2022-11-07T13:05:06.725Z,47.53
2022-11-07T13:07:33.127Z,47.75
2022-11-07T13:09:59.483Z,47.76
2022-11-07T13:12:25.814Z,47.73
2022-11-07T13:14:52.133Z,47.72
2022-11-07T13:17:18.464Z,47.60
2022-11-07T13:19:44.799Z,48.04
2022-11-07T13:22:11.137Z,47.76
2022-11-07T13:24:37.478Z,47.70
2022-11-07T13:27:03.807Z,47.70
2022-11-07T13:29:30.134Z,47.75
2022-11-07T13:31:56.448Z,47.91
2022-11-07T13:34:22.792Z,47.85
2022-11-07T13:36:49.128Z,47.70
2022-11-07T13:39:15.521Z,47.78
2022-11-07T13:41:41.867Z,47.81
2022-11-07T13:44:08.197Z,47.92
2022-11-07T13:46:34.532Z,47.66
2022-11-07T13:49:00.874Z,47.74
2022-11-07T13:51:27.203Z,47.59
2022-11-07T13:53:53.547Z,47.94
2022-11-07T13:56:19.883Z,47.70
2022-11-07T13:58:46.201Z,47.88
2022-11-07T14:01:12.623Z,47.79
2022-11-07T14:03:39.015Z,47.91
2022-11-07T14:06:05.342Z,47.65
2022-11-07T14:08:31.667Z,47.65
2022-11-07T14:10:57.987Z,47.68
2022-11-07T14:13:24.318Z,47.84
2022-11-07T14:15:50.644Z,47.55
2022-11-07T14:18:17.314Z,47.54
2022-11-07T14:20:43.836Z,47.53
2022-11-07T14:23:10.168Z,47.52
2022-11-07T14:25:36.496Z,47.55
2022-11-07T14:28:02.828Z,47.80
2022-11-07T14:30:29.148Z,47.40
2022-11-07T14:32:55.484Z,47.36
2022-11-07T14:35:21.804Z,47.52
2022-11-07T14:37:48.137Z,47.39
2022-11-07T14:40:14.462Z,47.49
2022-11-07T14:42:40.788Z,47.50
2022-11-07T14:45:07.134Z,47.71
2022-11-07T14:47:33.465Z,47.82
2022-11-07T14:49:59.802Z,47.67
2022-11-07T14:52:26.140Z,47.52
2022-11-07T14:54:52.479Z,47.53
2022-11-07T14:57:18.807Z,47.57
2022-11-07T14:59:45.142Z,47.56
2022-11-07T15:02:11.590Z,47.59
2022-11-07T15:04:37.997Z,47.51
2022-11-07T15:07:04.332Z,47.57
2022-11-07T15:09:30.674Z,47.59
2022-11-07T15:11:57.004Z,47.57
2022-11-07T15:14:23.341Z,47.57
2022-11-07T15:16:49.661Z,47.76
2022-11-07T15:19:15.983Z,47.72
2022-11-07T15:21:42.320Z,47.63
2022-11-07T15:24:11.399Z,47.73
2022-11-07T15:26:41.387Z,47.86
2022-11-07T15:29:07.745Z,47.72
2022-11-07T15:31:34.088Z,47.49
2022-11-07T15:34:00.421Z,47.83
2022-11-07T15:36:26.751Z,47.49
2022-11-07T15:38:53.082Z,47.85
2022-11-07T15:41:19.407Z,47.93
2022-11-07T15:43:45.741Z,47.44
2022-11-07T15:46:12.076Z,47.72
2022-11-07T15:48:41.267Z,47.69
2022-11-07T15:51:07.834Z,47.93
2022-11-07T15:53:34.162Z,48.04
2022-11-07T15:56:00.491Z,47.90
2022-11-07T15:58:26.819Z,47.36
2022-11-07T16:00:53.141Z,47.47
2022-11-07T16:03:19.459Z,47.73
2022-11-07T16:05:46.048Z,47.62
2022-11-07T16:08:12.407Z,47.78
2022-11-07T16:10:38.813Z,47.81
2022-11-07T16:13:05.352Z,47.64
2022-11-07T16:15:31.691Z,47.81
2022-11-07T16:17:58.023Z,47.67
2022-11-07T16:20:24.349Z,47.67
2022-11-07T16:22:50.671Z,47.63
2022-11-07T16:25:21.358Z,47.82
2022-11-07T16:27:48.581Z,47.60
2022-11-07T16:30:14.909Z,47.81
2022-11-07T16:32:41.239Z,47.65
2022-11-07T16:35:07.612Z,47.65
2022-11-07T16:37:33.939Z,47.83
2022-11-07T16:40:00.271Z,47.59
2022-11-07T16:42:26.608Z,47.88
2022-11-07T16:44:52.996Z,47.39
2022-11-07T16:47:19.379Z,47.78
2022-11-07T16:49:45.701Z,47.55
2022-11-07T16:52:12.021Z,47.86
2022-11-07T16:54:38.346Z,47.62
2022-11-07T16:57:04.691Z,47.59
2022-11-07T16:59:31.005Z,47.63
2022-11-07T17:01:57.488Z,47.67
2022-11-07T17:04:23.890Z,47.73
2022-11-07T17:06:50.197Z,47.70
2022-11-07T17:09:16.530Z,47.58
2022-11-07T17:11:42.865Z,47.57
2022-11-07T17:14:09.183Z,47.66
2022-11-07T17:16:35.508Z,47.63
2022-11-07T17:19:01.830Z,47.68
2022-11-07T17:21:28.159Z,47.88
2022-11-07T17:23:54.492Z,47.77
2022-11-07T17:26:20.814Z,47.73
2022-11-07T17:28:47.132Z,47.68
2022-11-07T17:31:13.489Z,47.46
2022-11-07T17:33:39.820Z,47.80
2022-11-07T17:36:06.141Z,47.44
2022-11-07T17:38:32.475Z,47.72
2022-11-07T17:40:58.791Z,47.67
2022-11-07T17:43:25.129Z,47.69
2022-11-07T17:45:51.466Z,47.71
2022-11-07T17:48:18.076Z,47.21
2022-11-07T17:50:44.790Z,47.09
2022-11-07T17:53:11.106Z,44.32
2022-11-07T17:55:37.431Z,44.82
2022-11-07T17:58:03.763Z,46.41
2022-11-07T18:00:30.103Z,46.22
2022-11-07T18:02:56.532Z,46.46
2022-11-07T18:05:22.958Z,46.98
2022-11-07T18:07:49.296Z,46.81
2022-11-07T18:10:15.640Z,46.71
2022-11-07T18:12:41.967Z,47.01
2022-11-07T18:15:08.296Z,46.45
2022-11-07T18:17:34.627Z,46.37
2022-11-07T18:20:00.943Z,46.71
2022-11-07T18:22:27.267Z,46.16
2022-11-07T18:24:53.613Z,46.30
2022-11-07T18:27:19.971Z,46.24
2022-11-07T18:29:46.303Z,46.28
2022-11-07T18:32:12.622Z,46.17
2022-11-07T18:34:38.950Z,46.48
2022-11-07T18:37:05.281Z,46.50
2022-11-07T18:39:31.606Z,46.63
2022-11-07T18:41:57.935Z,46.17
2022-11-07T18:44:24.258Z,46.31
2022-11-07T18:46:50.575Z,46.22
2022-11-07T18:49:16.911Z,46.19
2022-11-07T18:51:43.234Z,46.17
2022-11-07T18:54:09.566Z,46.12
2022-11-07T18:56:35.911Z,46.45
2022-11-07T18:59:02.229Z,46.40
2022-11-07T19:01:28.794Z,46.47
2022-11-07T19:03:55.227Z,46.21
2022-11-07T19:06:21.609Z,46.27
2022-11-07T19:08:47.933Z,46.34
2022-11-07T19:11:14.251Z,46.42
2022-11-07T19:13:40.625Z,46.39
2022-11-07T19:16:06.944Z,46.14
2022-11-07T19:18:33.272Z,46.46
2022-11-07T19:20:59.610Z,46.26
2022-11-07T19:23:25.930Z,46.57
2022-11-07T19:25:52.253Z,46.31
2022-11-07T19:28:18.586Z,46.47
2022-11-07T19:30:44.925Z,46.60
2022-11-07T19:33:11.264Z,47.36
2022-11-07T19:35:37.578Z,47.43
2022-11-07T19:38:08.689Z,47.67
2022-11-07T19:40:35.395Z,48.25
2022-11-07T19:43:01.734Z,48.50
2022-11-07T19:45:28.074Z,48.17
2022-11-07T19:47:54.424Z,47.89
2022-11-07T19:50:20.802Z,48.08
2022-11-07T19:52:47.134Z,48.11
2022-11-07T19:55:13.461Z,48.13
2022-11-07T19:57:39.783Z,47.98
2022-11-07T20:00:06.112Z,48.34
2022-11-07T20:02:34.743Z,48.05
2022-11-07T20:05:02.840Z,47.80
2022-11-07T20:07:29.190Z,48.12
2022-11-07T20:09:55.688Z,48.15
2022-11-07T20:12:22.066Z,48.27
2022-11-07T20:14:48.404Z,48.49
2022-11-07T20:17:14.725Z,48.45
2022-11-07T20:19:41.054Z,48.30
2022-11-07T20:22:07.377Z,48.09
2022-11-07T20:24:33.693Z,48.92
2022-11-07T20:27:00.027Z,50.72
2022-11-07T20:29:26.379Z,50.50
2022-11-07T20:31:52.713Z,49.78
2022-11-07T20:34:19.045Z,49.43
2022-11-07T20:36:45.379Z,49.21
2022-11-07T20:39:11.724Z,49.17
2022-11-07T20:41:38.053Z,49.49
2022-11-07T20:44:04.391Z,49.58
2022-11-07T20:46:30.729Z,49.33
2022-11-07T20:48:57.069Z,49.24
2022-11-07T20:51:23.382Z,49.08
2022-11-07T20:53:50.824Z,49.27
2022-11-07T20:56:17.518Z,49.58
2022-11-07T20:58:43.829Z,49.38
2022-11-07T21:01:10.844Z,49.70
2022-11-07T21:03:37.228Z,49.44
2022-11-07T21:06:03.585Z,49.65
2022-11-07T21:08:34.518Z,49.48
2022-11-07T21:11:03.612Z,49.42
2022-11-07T21:13:29.960Z,49.42
2022-11-07T21:15:56.286Z,49.57
2022-11-07T21:18:22.814Z,49.55
2022-11-07T21:20:49.143Z,49.46
2022-11-07T21:23:15.936Z,49.61
2022-11-07T21:25:42.844Z,49.76
2022-11-07T21:28:09.184Z,49.76
2022-11-07T21:30:35.515Z,49.59
2022-11-07T21:33:01.849Z,49.73
2022-11-07T21:35:33.358Z,49.87
2022-11-07T21:37:59.968Z,49.87
2022-11-07T21:40:26.315Z,49.90
2022-11-07T21:42:52.631Z,49.67
2022-11-07T21:45:18.962Z,49.52
2022-11-07T21:47:46.189Z,50.03
2022-11-07T21:50:37.861Z,49.84
2022-11-07T21:52:58.875Z,49.44
2022-11-07T21:55:25.202Z,47.22
2022-11-07T21:57:51.527Z,49.04
2022-11-07T22:00:17.841Z,49.60
2022-11-07T22:02:44.173Z,50.06
2022-11-07T22:05:10.499Z,50.18
2022-11-07T22:07:36.826Z,50.05
2022-11-07T22:10:03.153Z,49.88
2022-11-07T22:12:29.479Z,50.16
2022-11-07T22:14:55.804Z,49.83
2022-11-07T22:17:22.123Z,50.31
2022-11-07T22:19:48.435Z,52.15
2022-11-07T22:22:14.758Z,52.09
2022-11-07T22:24:41.089Z,51.99
2022-11-07T22:27:07.412Z,51.65
2022-11-07T22:29:33.753Z,51.62
2022-11-07T22:32:00.103Z,51.71
2022-11-07T22:34:26.438Z,51.73
2022-11-07T22:36:52.773Z,51.62
2022-11-07T22:39:19.111Z,51.51
2022-11-07T22:41:45.435Z,51.59
2022-11-07T22:44:11.765Z,51.64
2022-11-07T22:46:38.089Z,51.31
2022-11-07T22:49:04.413Z,51.51
2022-11-07T22:51:30.755Z,51.46
2022-11-07T22:53:57.127Z,51.44
2022-11-07T22:56:23.483Z,51.22
2022-11-07T22:58:49.821Z,51.12
2022-11-07T23:01:16.142Z,51.06
2022-11-07T23:03:42.464Z,51.03
2022-11-07T23:06:08.796Z,51.09
2022-11-07T23:08:35.127Z,51.06
2022-11-07T23:11:32.555Z,50.96
2022-11-07T23:13:47.759Z,51.20
2022-11-07T23:16:14.083Z,50.86
2022-11-07T23:18:40.411Z,49.16
2022-11-07T23:21:06.743Z,49.40
2022-11-07T23:23:33.076Z,49.64
2022-11-07T23:25:59.407Z,49.51
2022-11-07T23:28:25.726Z,49.90
2022-11-07T23:30:52.051Z,49.31
2022-11-07T23:33:18.366Z,49.24
2022-11-07T23:35:44.696Z,49.47
2022-11-07T23:38:11.028Z,49.20
2022-11-07T23:40:37.350Z,49.22
2022-11-07T23:43:03.677Z,49.67
2022-11-07T23:45:30.007Z,49.13
2022-11-07T23:47:56.344Z,49.43
2022-11-07T23:50:22.704Z,49.00
2022-11-07T23:52:49.039Z,49.07
2022-11-07T23:55:15.362Z,49.22
2022-11-07T23:57:45.096Z,49.23
